»·PEaware :: N2442P KSAC-KFAT

N2442P :: KSAC-KFAT

FLIGHT INFORMATION

Flight Status: Arrived
Operator: Privately registered:
United States
More flights under this callsign
Pilot: Ken Q. (14290)
Aircraft: MOONEY M-20K/M ENCORE BRAVO
(M20T)
More flights by this aircraft type
Origin: KSAC Sacramento Executive
United States
Destination: KFAT Fresno Yosemite Intl
United States
More flights between these airports :: More routes between these airports
Route: +LIN HYP CZQ
File this flight plan on PilotEdge
Remarks: X
Altitude:
(Current/Filed)
3,500ft
Speed:
(Current/Filed)
165kts
Departed: 26-Nov-19 12:20 PM
Arrived: 26-Nov-19 01:14 PM
Distance/Time
Traveled:
134nm/0:54
Distance/Time
To Go:
Arrived

Flight Plot

Page will automatically refresh every two minutes.

Flight plan parsing failed; only flown route is shown


Map Options




Map Legend


Flown Route
Filed Route
Departure Airport
Arrival Airport
Navaid (VOR, NDB)
Fix

Horizontal Profiles

Position Reports

Time Latitude Longitude Heading Altitude Ground
Speed
26-Nov-19 11:29 38.514239 -121.498019 224 27ft 0kts
26-Nov-19 11:30 38.514239 -121.498019 224 27ft 0kts
26-Nov-19 11:31 38.514239 -121.498019 224 27ft 0kts
26-Nov-19 11:32 38.514239 -121.498019 224 27ft 0kts
26-Nov-19 11:33 38.514239 -121.498019 224 27ft 0kts
26-Nov-19 11:34 38.514239 -121.498019 224 27ft 0kts
26-Nov-19 11:35 38.514239 -121.498019 224 27ft 0kts
26-Nov-19 11:36 38.514239 -121.498019 224 27ft 0kts
26-Nov-19 11:37 38.514239 -121.498019 224 27ft 0kts
26-Nov-19 11:38 38.514239 -121.498019 224 27ft 0kts
26-Nov-19 11:39 38.514239 -121.498019 224 27ft 0kts
26-Nov-19 11:40 38.514239 -121.498019 224 27ft 0kts
26-Nov-19 11:41 38.514239 -121.498019 224 27ft 0kts
26-Nov-19 11:42 38.514239 -121.498019 224 27ft 0kts
26-Nov-19 11:43 38.514239 -121.498019 224 27ft 0kts
26-Nov-19 11:44 38.514239 -121.498019 224 27ft 0kts
26-Nov-19 11:45 38.514239 -121.498019 224 27ft 0kts
26-Nov-19 11:46 38.514239 -121.498019 224 27ft 0kts
26-Nov-19 11:47 38.514239 -121.498019 224 27ft 0kts
26-Nov-19 11:48 38.514239 -121.498019 224 27ft 0kts
26-Nov-19 11:49 38.514239 -121.498019 224 27ft 0kts
26-Nov-19 11:50 38.514239 -121.498019 224 27ft 0kts
26-Nov-19 11:51 38.514239 -121.498019 224 27ft 0kts
26-Nov-19 11:52 38.514239 -121.498019 224 27ft 0kts
26-Nov-19 11:53 38.514239 -121.498019 224 27ft 0kts
26-Nov-19 11:54 38.514239 -121.498019 224 27ft 0kts
26-Nov-19 11:55 38.514239 -121.498019 224 27ft 0kts
26-Nov-19 11:56 38.514239 -121.498019 224 27ft 0kts
26-Nov-19 11:57 38.514239 -121.498019 224 27ft 0kts
26-Nov-19 11:58 38.514239 -121.498019 224 27ft 0kts
26-Nov-19 11:59 38.514239 -121.498019 224 27ft 0kts
26-Nov-19 12:00 38.514239 -121.498019 224 27ft 0kts
26-Nov-19 12:01 38.514239 -121.498019 224 27ft 0kts
26-Nov-19 12:02 38.514239 -121.498019 224 27ft 0kts
26-Nov-19 12:03 38.514239 -121.498019 224 27ft 0kts
26-Nov-19 12:04 38.514239 -121.498019 224 27ft 0kts
26-Nov-19 12:05 38.514239 -121.498020 224 27ft 0kts
26-Nov-19 12:06 38.514238 -121.498020 224 27ft 0kts
26-Nov-19 12:07 38.514238 -121.498021 224 27ft 0kts
26-Nov-19 12:08 38.514237 -121.498022 224 27ft 0kts
26-Nov-19 12:09 38.514237 -121.498022 224 27ft 0kts
26-Nov-19 12:10 38.514236 -121.498023 224 27ft 0kts
26-Nov-19 12:11 38.514236 -121.498023 224 27ft 0kts
26-Nov-19 12:12 38.514228 -121.497577 133 27ft 13kts
26-Nov-19 12:13 38.513518 -121.495580 41 27ft 7kts
26-Nov-19 12:14 38.515829 -121.493633 32 27ft 10kts
26-Nov-19 12:15 38.518157 -121.491707 34 27ft 9kts
26-Nov-19 12:16 38.519174 -121.490204 104 27ft 0kts
26-Nov-19 12:17 38.519173 -121.490196 103 27ft 0kts
26-Nov-19 12:18 38.519172 -121.490190 103 27ft 0kts
26-Nov-19 12:19 38.513790 -121.493597 212 44ft 87kts
26-Nov-19 12:20 38.485338 -121.504021 153 804ft 130kts
26-Nov-19 12:21 38.461414 -121.475211 135 1375ft 142kts
26-Nov-19 12:22 38.433933 -121.437491 132 1995ft 149kts
26-Nov-19 12:23 38.405691 -121.396447 132 2633ft 157kts
26-Nov-19 12:24 38.376769 -121.354457 135 3263ft 157kts
26-Nov-19 12:25 38.346708 -121.314320 135 3503ft 160kts
26-Nov-19 12:26 38.315175 -121.273574 137 3501ft 163kts
26-Nov-19 12:27 38.282300 -121.233353 139 3501ft 163kts
26-Nov-19 12:28 38.248139 -121.195311 140 3496ft 163kts
26-Nov-19 12:29 38.213790 -121.157221 140 3492ft 163kts
26-Nov-19 12:30 38.179568 -121.119304 140 3493ft 163kts
26-Nov-19 12:31 38.145364 -121.081430 140 3494ft 163kts
26-Nov-19 12:32 38.111052 -121.043476 140 3495ft 163kts
26-Nov-19 12:33 38.075888 -121.007094 149 3499ft 163kts
26-Nov-19 12:34 38.036235 -120.978931 152 3497ft 164kts
26-Nov-19 12:35 37.996070 -120.951197 152 3490ft 163kts
26-Nov-19 12:36 37.955791 -120.923593 152 3493ft 166kts
26-Nov-19 12:37 37.914987 -120.895627 152 3486ft 167kts
26-Nov-19 12:38 37.874079 -120.867602 152 3489ft 168kts
26-Nov-19 12:39 37.833109 -120.839544 152 3492ft 167kts
26-Nov-19 12:40 37.792292 -120.811605 152 3492ft 166kts
26-Nov-19 12:41 37.751277 -120.783583 152 3493ft 167kts
26-Nov-19 12:42 37.710205 -120.755895 152 3493ft 167kts
26-Nov-19 12:43 37.669831 -120.726818 150 3495ft 167kts
26-Nov-19 12:44 37.629553 -120.697408 150 3497ft 167kts
26-Nov-19 12:45 37.588921 -120.667767 150 3502ft 171kts
26-Nov-19 12:46 37.547882 -120.637861 150 3508ft 171kts
26-Nov-19 12:47 37.506955 -120.608089 150 3513ft 170kts
26-Nov-19 12:48 37.466061 -120.578372 150 3519ft 171kts
26-Nov-19 12:49 37.425302 -120.548782 150 3520ft 168kts
26-Nov-19 12:50 37.384628 -120.519313 150 3522ft 169kts
26-Nov-19 12:52 37.343689 -120.489721 150 3517ft 169kts
26-Nov-19 12:53 37.302929 -120.460352 150 3514ft 168kts
26-Nov-19 12:54 37.262375 -120.431189 150 3512ft 168kts
26-Nov-19 12:55 37.221580 -120.401755 150 3513ft 169kts
26-Nov-19 12:56 37.183342 -120.368242 125 3518ft 169kts
26-Nov-19 12:57 37.151289 -120.325064 135 3516ft 170kts
26-Nov-19 12:58 37.124869 -120.276563 113 3521ft 169kts
26-Nov-19 12:59 37.106289 -120.221934 112 3524ft 172kts
26-Nov-19 13:00 37.084202 -120.169159 119 3528ft 170kts
26-Nov-19 13:01 37.058476 -120.118918 122 3530ft 172kts
26-Nov-19 13:02 37.032394 -120.068812 122 3531ft 171kts
26-Nov-19 13:03 37.006466 -120.019664 124 3195ft 169kts
26-Nov-19 13:04 36.978982 -119.971906 126 2696ft 168kts
26-Nov-19 13:05 36.951624 -119.926159 126 2188ft 156kts
26-Nov-19 13:06 36.925320 -119.884674 133 1686ft 149kts
26-Nov-19 13:07 36.896614 -119.850124 137 1475ft 134kts
26-Nov-19 13:08 36.868797 -119.820969 142 1367ft 132kts
26-Nov-19 13:09 36.843402 -119.800524 152 1257ft 85kts
26-Nov-19 13:10 36.822055 -119.788845 159 1331ft 88kts
26-Nov-19 13:11 36.804008 -119.768700 127 1314ft 88kts
26-Nov-19 13:12 36.790029 -119.744537 126 737ft 82kts
26-Nov-19 13:12 36.779841 -119.726678 126 357ft 70kts
26-Nov-19 13:14 36.776394 -119.721809 214 339ft 0kts
26-Nov-19 13:15 36.775301 -119.722806 225 339ft 5kts
26-Nov-19 13:15 36.776038 -119.724346 305 339ft 7kts
26-Nov-19 13:16 36.776201 -119.725869 293 339ft 1kts
26-Nov-19 13:18 36.776251 -119.725964 303 339ft 0kts
26-Nov-19 13:18 36.776251 -119.725964 303 339ft 0kts

Navigation Log

Ident Type
Flight plan parsing failed, navigation log unavailable